createdAt,value
2023-05-03T00:01:18.121Z,7.47
2023-05-03T00:04:20.252Z,7.67
2023-05-03T00:07:22.815Z,7.64
2023-05-03T00:10:24.869Z,7.62
2023-05-03T00:13:26.979Z,7.65
2023-05-03T00:16:30.262Z,7.60
2023-05-03T00:19:33.538Z,7.58
2023-05-03T00:22:36.520Z,7.80
2023-05-03T00:25:38.611Z,7.66
2023-05-03T00:28:40.408Z,7.73
2023-05-03T00:31:44.837Z,7.85
2023-05-03T00:34:46.477Z,7.49
2023-05-03T00:37:48.384Z,7.37
2023-05-03T00:40:54.365Z,7.30
2023-05-03T00:43:58.747Z,7.26
2023-05-03T00:47:02.577Z,6.98
2023-05-03T00:50:06.022Z,6.87
2023-05-03T00:53:08.022Z,6.86
2023-05-03T00:56:11.186Z,6.90
2023-05-03T00:59:13.174Z,6.90
2023-05-03T01:02:16.683Z,6.80
2023-05-03T01:05:19.035Z,6.87
2023-05-03T01:08:28.733Z,6.95
2023-05-03T01:11:38.920Z,7.08
2023-05-03T01:14:49.737Z,7.33
2023-05-03T01:17:59.916Z,7.19
2023-05-03T01:21:02.615Z,7.12
2023-05-03T01:24:11.498Z,7.06
2023-05-03T01:27:14.911Z,7.00
2023-05-03T01:30:17.125Z,7.05
2023-05-03T01:33:33.625Z,6.90
2023-05-03T01:36:36.745Z,6.73
2023-05-03T01:39:44.583Z,6.73
2023-05-03T01:42:48.371Z,6.90
2023-05-03T01:45:50.500Z,6.70
2023-05-03T01:48:52.135Z,6.67
2023-05-03T01:51:53.980Z,6.57
2023-05-03T01:54:56.951Z,6.64
2023-05-03T01:58:00.553Z,6.66
2023-05-03T02:01:04.729Z,6.53
2023-05-03T02:04:06.530Z,6.49
2023-05-03T02:07:08.292Z,6.42
2023-05-03T02:10:14.951Z,6.48
2023-05-03T02:13:18.575Z,6.37
2023-05-03T02:16:20.807Z,6.34
2023-05-03T02:19:22.667Z,6.17
2023-05-03T02:22:25.231Z,6.38
2023-05-03T02:25:27.650Z,6.29
2023-05-03T02:28:30.969Z,6.30
2023-05-03T02:31:33.080Z,6.24
2023-05-03T02:34:35.030Z,6.19
2023-05-03T02:37:36.994Z,6.12
2023-05-03T02:40:43.778Z,6.10
2023-05-03T02:43:47.136Z,5.98
2023-05-03T02:46:49.456Z,6.16
2023-05-03T02:49:52.690Z,6.14
2023-05-03T02:52:54.397Z,6.03
2023-05-03T02:55:56.084Z,5.86
2023-05-03T02:58:59.347Z,5.72
2023-05-03T03:02:01.750Z,5.78
2023-05-03T03:05:09.292Z,5.66
2023-05-03T03:08:11.136Z,5.75
2023-05-03T03:11:13.968Z,5.62
2023-05-03T03:14:17.113Z,5.75
2023-05-03T03:17:18.846Z,5.82
2023-05-03T03:20:20.738Z,5.85
2023-05-03T03:23:24.524Z,5.66
2023-05-03T03:26:26.293Z,5.68
2023-05-03T03:29:31.709Z,5.88
2023-05-03T03:32:34.131Z,5.99
2023-05-03T03:35:37.957Z,5.90
2023-05-03T03:38:41.193Z,5.69
2023-05-03T03:41:45.716Z,5.64
2023-05-03T03:44:49.583Z,5.69
2023-05-03T03:47:52.239Z,5.50
2023-05-03T03:50:57.002Z,5.64
2023-05-03T03:54:05.048Z,5.59
2023-05-03T03:57:10.972Z,5.51
2023-05-03T04:00:15.753Z,5.65
2023-05-03T04:03:24.110Z,5.57
2023-05-03T04:06:27.140Z,5.53
2023-05-03T04:09:30.614Z,5.42
2023-05-03T04:12:33.941Z,5.40
2023-05-03T04:15:37.131Z,5.45
2023-05-03T04:18:39.974Z,5.53
2023-05-03T04:21:43.683Z,5.46
2023-05-03T04:24:46.028Z,5.36
2023-05-03T04:27:48.707Z,5.32
2023-05-03T04:30:53.766Z,5.43
2023-05-03T04:33:59.359Z,5.37
2023-05-03T04:37:01.877Z,5.36
2023-05-03T04:40:08.666Z,5.40
2023-05-03T04:43:13.911Z,5.62
2023-05-03T04:46:21.525Z,5.55
2023-05-03T04:49:24.372Z,5.56
2023-05-03T04:52:27.215Z,5.61
2023-05-03T04:55:30.768Z,5.56
2023-05-03T04:58:33.793Z,5.76
2023-05-03T05:01:36.956Z,5.79
2023-05-03T05:04:40.490Z,5.90
2023-05-03T05:07:44.605Z,5.88
2023-05-03T05:10:47.814Z,5.77
2023-05-03T05:13:53.795Z,5.89
2023-05-03T05:16:57.044Z,6.00
2023-05-03T05:19:58.973Z,6.19
2023-05-03T05:23:04.220Z,6.19
2023-05-03T05:26:06.936Z,6.15
2023-05-03T05:29:08.883Z,6.24
2023-05-03T05:32:12.864Z,6.23
2023-05-03T05:35:17.676Z,6.31
2023-05-03T05:38:19.556Z,6.34
2023-05-03T05:41:21.913Z,6.33
2023-05-03T05:44:23.745Z,6.48
2023-05-03T05:47:27.551Z,6.51
2023-05-03T05:50:32.372Z,6.64
2023-05-03T05:53:38.254Z,6.66
2023-05-03T05:56:40.352Z,6.67
2023-05-03T05:59:42.429Z,7.01
2023-05-03T06:02:46.331Z,7.02
2023-05-03T06:05:52.202Z,7.15
2023-05-03T06:08:55.284Z,7.24
2023-05-03T06:11:56.952Z,7.29
2023-05-03T06:15:02.292Z,7.42
2023-05-03T06:18:11.276Z,7.49
2023-05-03T06:21:13.228Z,7.87
2023-05-03T06:24:20.937Z,8.14
2023-05-03T06:27:25.243Z,8.44
2023-05-03T06:30:28.725Z,8.71
2023-05-03T06:33:37.398Z,8.91
2023-05-03T06:36:40.358Z,9.17
2023-05-03T06:39:42.357Z,9.17
2023-05-03T06:42:44.479Z,9.29
2023-05-03T06:45:51.828Z,9.50
2023-05-03T06:48:56.389Z,9.88
2023-05-03T06:51:58.133Z,9.92
2023-05-03T06:55:04.675Z,10.16
2023-05-03T06:58:10.226Z,10.26
2023-05-03T07:01:12.330Z,10.35
2023-05-03T07:04:15.561Z,10.46
2023-05-03T07:07:17.778Z,10.59
2023-05-03T07:10:19.500Z,10.68
2023-05-03T07:13:21.397Z,10.79
2023-05-03T07:16:25.489Z,10.88
2023-05-03T07:19:28.826Z,10.86
2023-05-03T07:22:30.690Z,10.86
2023-05-03T07:25:32.684Z,10.83
2023-05-03T07:28:34.589Z,11.02
2023-05-03T07:31:36.737Z,11.15
2023-05-03T07:34:39.878Z,11.34
2023-05-03T07:37:42.106Z,11.30
2023-05-03T07:40:44.685Z,11.15
2023-05-03T07:43:49.164Z,11.30
2023-05-03T07:46:51.061Z,11.21
2023-05-03T07:49:54.830Z,11.36
2023-05-03T07:52:56.804Z,11.51
2023-05-03T07:55:58.417Z,11.63
2023-05-03T07:59:09.389Z,11.86
2023-05-03T08:02:12.158Z,11.86
2023-05-03T08:05:15.884Z,11.85
2023-05-03T08:08:18.636Z,11.81
2023-05-03T08:11:20.941Z,12.34
2023-05-03T08:14:23.110Z,12.54
2023-05-03T08:17:24.822Z,12.77
2023-05-03T08:20:27.828Z,12.52
2023-05-03T08:23:29.623Z,12.55
2023-05-03T08:26:31.710Z,12.95
2023-05-03T08:29:33.956Z,12.93
2023-05-03T08:32:39.134Z,13.25
2023-05-03T08:35:45.395Z,13.54
2023-05-03T08:38:48.105Z,13.39
2023-05-03T08:41:53.471Z,13.02
2023-05-03T08:44:55.329Z,13.14
2023-05-03T08:47:57.121Z,13.55
2023-05-03T08:51:03.264Z,13.62
2023-05-03T08:54:15.554Z,13.62
2023-05-03T08:57:24.917Z,13.64
2023-05-03T09:00:30.023Z,14.02
2023-05-03T09:03:31.907Z,13.91
2023-05-03T09:06:36.860Z,14.38
2023-05-03T09:09:39.081Z,14.14
2023-05-03T09:12:41.384Z,14.30
2023-05-03T09:15:46.780Z,14.42
2023-05-03T09:18:59.051Z,13.91
2023-05-03T09:22:07.867Z,14.59
2023-05-03T09:25:10.085Z,14.28
2023-05-03T09:28:12.438Z,14.50
2023-05-03T09:31:14.168Z,14.21
2023-05-03T09:34:24.936Z,13.88
2023-05-03T09:37:36.283Z,13.87
2023-05-03T09:40:46.149Z,14.10
2023-05-03T09:43:55.978Z,14.06
2023-05-03T09:47:04.573Z,13.92
2023-05-03T09:50:09.469Z,14.36
2023-05-03T09:53:19.301Z,14.73
2023-05-03T09:56:26.359Z,14.78
2023-05-03T09:59:28.498Z,15.43
2023-05-03T10:02:32.620Z,15.10
2023-05-03T10:05:42.063Z,14.92
2023-05-03T10:08:52.239Z,14.81
2023-05-03T10:11:58.867Z,15.01
2023-05-03T10:15:05.081Z,15.63
2023-05-03T10:18:08.166Z,15.30
2023-05-03T10:21:16.773Z,15.59
2023-05-03T10:24:22.483Z,15.81
2023-05-03T10:27:24.532Z,15.73
2023-05-03T10:30:34.675Z,15.88
2023-05-03T10:33:36.638Z,15.24
2023-05-03T10:36:48.778Z,15.84
2023-05-03T10:39:54.178Z,16.30
2023-05-03T10:42:59.197Z,16.63
2023-05-03T10:46:02.002Z,16.39
2023-05-03T10:49:20.774Z,16.74
2023-05-03T10:52:50.348Z,16.78
2023-05-03T10:56:08.181Z,16.95
2023-05-03T10:59:09.957Z,17.22
2023-05-03T11:02:21.413Z,16.88
2023-05-03T11:05:25.164Z,17.15
2023-05-03T11:08:28.029Z,17.18
2023-05-03T11:11:31.578Z,17.39
2023-05-03T11:14:33.536Z,17.25
2023-05-03T11:17:36.080Z,17.39
2023-05-03T11:20:38.234Z,17.72
2023-05-03T11:23:43.853Z,17.59
2023-05-03T11:26:47.124Z,17.28
2023-05-03T11:29:49.396Z,16.97
2023-05-03T11:32:54.706Z,18.04
2023-05-03T11:35:56.956Z,17.64
2023-05-03T11:38:59.951Z,17.38
2023-05-03T11:42:04.911Z,17.00
2023-05-03T11:45:08.456Z,17.87
2023-05-03T11:48:12.308Z,17.86
2023-05-03T11:51:14.905Z,18.19
2023-05-03T11:54:25.113Z,18.50
2023-05-03T11:57:31.813Z,18.05
2023-05-03T12:00:33.722Z,17.58
2023-05-03T12:03:36.334Z,17.14
2023-05-03T12:06:39.906Z,17.94
2023-05-03T12:09:44.411Z,18.83
2023-05-03T12:12:57.003Z,18.96
2023-05-03T12:16:10.979Z,18.69
2023-05-03T12:19:24.389Z,18.09
2023-05-03T12:25:33.831Z,19.08
2023-05-03T12:28:38.180Z,18.72
2023-05-03T12:31:40.201Z,18.94
2023-05-03T12:34:43.578Z,19.34
2023-05-03T12:37:49.588Z,19.00
2023-05-03T12:40:53.132Z,19.25
2023-05-03T12:44:00.324Z,20.18
2023-05-03T12:47:03.854Z,19.88
2023-05-03T12:50:12.116Z,19.35
2023-05-03T12:53:17.116Z,19.71
2023-05-03T12:56:23.780Z,19.95
2023-05-03T12:59:40.944Z,21.29
2023-05-03T13:05:49.566Z,20.28
2023-05-03T13:08:52.467Z,21.64
2023-05-03T13:11:54.787Z,21.17
2023-05-03T13:14:58.123Z,21.70
2023-05-03T13:18:03.166Z,21.71
2023-05-03T13:21:06.513Z,19.90
2023-05-03T13:24:08.861Z,21.16
2023-05-03T13:27:11.509Z,21.15
2023-05-03T13:30:14.824Z,21.70
2023-05-03T13:33:17.050Z,21.04
2023-05-03T13:36:18.902Z,22.03
2023-05-03T13:39:21.085Z,22.08
2023-05-03T13:42:22.922Z,21.62
2023-05-03T13:45:26.140Z,21.55
2023-05-03T13:48:31.732Z,21.08
2023-05-03T13:51:34.663Z,21.75
2023-05-03T13:54:36.810Z,21.28
2023-05-03T13:57:38.676Z,22.14
2023-05-03T14:00:41.828Z,22.57
2023-05-03T14:03:45.165Z,21.70
2023-05-03T14:06:46.927Z,21.84
2023-05-03T14:09:48.587Z,22.69
2023-05-03T14:12:51.192Z,22.81
2023-05-03T14:15:55.296Z,22.26
2023-05-03T14:18:57.044Z,22.27
2023-05-03T14:21:59.708Z,21.32
2023-05-03T14:25:02.131Z,22.82
2023-05-03T14:28:05.235Z,21.42
2023-05-03T14:31:09.008Z,22.12
2023-05-03T14:34:10.849Z,23.09
2023-05-03T14:37:12.779Z,23.35
2023-05-03T14:40:17.265Z,23.26
2023-05-03T14:43:18.945Z,24.12
2023-05-03T14:46:22.143Z,24.53
2023-05-03T14:49:24.234Z,22.71
2023-05-03T14:52:26.217Z,23.85
2023-05-03T14:55:27.898Z,22.18
2023-05-03T14:58:29.817Z,21.77
2023-05-03T15:01:33.207Z,23.38
2023-05-03T15:04:37.612Z,22.57
2023-05-03T15:07:39.372Z,23.97
2023-05-03T15:10:41.629Z,23.82
2023-05-03T15:13:44.330Z,23.27
2023-05-03T15:16:48.585Z,22.67
2023-05-03T15:19:50.537Z,23.79
2023-05-03T15:22:52.251Z,23.67
2023-05-03T15:25:54.155Z,25.77
2023-05-03T15:28:55.911Z,26.47
2023-05-03T15:31:59.181Z,24.75
2023-05-03T15:35:00.926Z,25.78
2023-05-03T15:38:06.219Z,25.43
2023-05-03T15:41:08.229Z,25.69
2023-05-03T15:44:10.117Z,25.69
2023-05-03T15:47:13.219Z,26.01
2023-05-03T15:50:14.953Z,25.87
2023-05-03T15:53:17.147Z,25.52
2023-05-03T15:56:19.100Z,25.26
2023-05-03T15:59:21.173Z,25.98
2023-05-03T16:02:24.692Z,25.39
2023-05-03T16:05:27.314Z,25.36
2023-05-03T16:08:30.677Z,24.72
2023-05-03T16:11:32.420Z,23.86
2023-05-03T16:14:35.170Z,23.65
2023-05-03T16:17:38.825Z,23.84
2023-05-03T16:20:41.270Z,21.78
2023-05-03T16:23:43.637Z,22.90
2023-05-03T16:26:45.612Z,22.89
2023-05-03T16:29:47.598Z,22.93
2023-05-03T16:32:52.314Z,23.81
2023-05-03T16:35:54.100Z,23.93
2023-05-03T16:38:55.939Z,24.06
2023-05-03T16:41:57.690Z,22.76
2023-05-03T16:44:59.424Z,25.13
2023-05-03T16:48:05.480Z,25.03
2023-05-03T16:51:08.780Z,25.95
2023-05-03T16:54:11.953Z,24.32
2023-05-03T16:57:13.667Z,24.08
2023-05-03T17:00:16.259Z,25.28
2023-05-03T17:03:19.517Z,24.72
2023-05-03T17:06:21.364Z,23.88
2023-05-03T17:09:23.265Z,24.09
2023-05-03T17:12:25.045Z,25.34
2023-05-03T17:15:26.884Z,23.94
2023-05-03T17:18:30.159Z,23.19
2023-05-03T17:21:31.921Z,24.02
2023-05-03T17:24:34.778Z,23.59
2023-05-03T17:27:39.866Z,23.07
2023-05-03T17:30:42.198Z,21.59
2023-05-03T17:33:45.500Z,20.61
2023-05-03T17:36:47.140Z,21.37
2023-05-03T17:39:48.883Z,21.38
2023-05-03T17:42:53.025Z,21.04
2023-05-03T17:45:54.715Z,20.19
2023-05-03T17:48:58.435Z,19.69
2023-05-03T17:52:00.415Z,18.93
2023-05-03T17:55:02.632Z,18.93
2023-05-03T17:58:06.050Z,18.68
2023-05-03T18:01:10.250Z,18.54
2023-05-03T18:04:13.831Z,18.44
2023-05-03T18:07:15.683Z,18.37
2023-05-03T18:10:17.962Z,18.05
2023-05-03T18:13:20.054Z,17.71
2023-05-03T18:16:21.998Z,17.65
2023-05-03T18:19:25.342Z,17.55
2023-05-03T18:22:27.779Z,17.57
2023-05-03T18:25:29.818Z,17.30
2023-05-03T18:28:31.756Z,16.98
2023-05-03T18:31:33.413Z,17.00
2023-05-03T18:34:37.493Z,16.77
2023-05-03T18:37:39.194Z,16.44
2023-05-03T18:40:41.182Z,16.27
2023-05-03T18:43:43.687Z,16.07
2023-05-03T18:46:45.374Z,15.86
2023-05-03T18:49:52.513Z,15.43
2023-05-03T18:52:54.506Z,15.32
2023-05-03T18:55:56.371Z,14.94
2023-05-03T18:58:58.260Z,14.76
2023-05-03T19:02:00.192Z,14.60
2023-05-03T19:05:03.477Z,14.45
2023-05-03T19:08:05.672Z,14.22
2023-05-03T19:11:08.692Z,14.06
2023-05-03T19:14:12.948Z,13.83
2023-05-03T19:17:14.732Z,13.54
2023-05-03T19:20:18.204Z,13.37
2023-05-03T19:23:19.914Z,13.33
2023-05-03T19:26:22.001Z,13.31
2023-05-03T19:29:23.854Z,13.24
2023-05-03T19:32:25.636Z,12.91
2023-05-03T19:35:28.798Z,12.94
2023-05-03T19:38:30.477Z,12.83
2023-05-03T19:41:33.379Z,12.66
2023-05-03T19:44:35.162Z,12.59
2023-05-03T19:47:37.193Z,12.63
2023-05-03T19:50:40.402Z,12.35
2023-05-03T19:53:42.524Z,12.36
2023-05-03T19:56:44.290Z,12.48
2023-05-03T19:59:47.742Z,12.55
2023-05-03T20:02:49.602Z,12.77
2023-05-03T20:05:53.112Z,12.65
2023-05-03T20:08:54.798Z,12.55
2023-05-03T20:11:59.134Z,12.61
2023-05-03T20:18:21.958Z,13.28
2023-05-03T20:21:25.013Z,13.50
2023-05-03T20:24:29.199Z,13.38
2023-05-03T20:27:31.063Z,13.36
2023-05-03T20:30:32.885Z,13.17
2023-05-03T20:33:34.632Z,13.55
2023-05-03T20:36:38.253Z,13.75
2023-05-03T20:39:40.327Z,14.41
2023-05-03T20:42:42.507Z,14.66
2023-05-03T20:45:45.350Z,14.67
2023-05-03T20:48:47.171Z,14.72
2023-05-03T20:51:50.299Z,14.63
2023-05-03T20:54:52.119Z,14.74
2023-05-03T20:57:53.856Z,14.43
2023-05-03T21:00:57.731Z,14.23
2023-05-03T21:03:59.940Z,14.44
2023-05-03T21:07:03.597Z,14.27
2023-05-03T21:10:06.474Z,14.35
2023-05-03T21:13:08.567Z,14.46
2023-05-03T21:16:10.340Z,14.33
2023-05-03T21:19:12.315Z,14.54
2023-05-03T21:22:15.652Z,14.33
2023-05-03T21:25:17.422Z,14.23
2023-05-03T21:28:19.217Z,14.43
2023-05-03T21:31:20.924Z,14.47
2023-05-03T21:34:22.586Z,14.36
2023-05-03T21:37:26.348Z,14.18
2023-05-03T21:40:28.216Z,14.13
2023-05-03T21:43:29.888Z,14.20
2023-05-03T21:46:32.274Z,13.95
2023-05-03T21:49:34.153Z,13.74
2023-05-03T21:52:37.763Z,13.80
2023-05-03T21:55:39.408Z,13.70
2023-05-03T21:58:41.268Z,14.01
2023-05-03T22:01:42.969Z,14.57
2023-05-03T22:04:45.319Z,14.45
2023-05-03T22:07:49.947Z,14.57
2023-05-03T22:10:52.308Z,14.29
2023-05-03T22:14:06.557Z,14.40
2023-05-03T22:17:09.573Z,14.24
2023-05-03T22:20:12.123Z,14.09
2023-05-03T22:23:15.619Z,14.15
2023-05-03T22:26:17.402Z,14.18
2023-05-03T22:29:19.261Z,14.15
2023-05-03T22:32:21.238Z,14.32
2023-05-03T22:35:23.094Z,14.31
2023-05-03T22:38:26.238Z,14.54
2023-05-03T22:41:28.349Z,14.27
2023-05-03T22:44:31.703Z,14.10
2023-05-03T22:47:33.358Z,14.19
2023-05-03T22:50:35.060Z,14.32
2023-05-03T22:53:38.464Z,14.33
2023-05-03T22:56:40.220Z,14.45
2023-05-03T22:59:45.152Z,14.25
2023-05-03T23:02:47.234Z,14.36
2023-05-03T23:05:51.428Z,14.21
2023-05-03T23:08:54.660Z,14.24
2023-05-03T23:11:56.706Z,14.40
2023-05-03T23:14:58.408Z,14.42
2023-05-03T23:18:00.369Z,14.51
2023-05-03T23:21:02.385Z,14.48
2023-05-03T23:24:06.528Z,14.39
2023-05-03T23:27:08.754Z,14.21
2023-05-03T23:30:11.930Z,14.30
2023-05-03T23:33:14.555Z,14.01
2023-05-03T23:36:16.985Z,14.17
2023-05-03T23:39:20.000Z,14.14
2023-05-03T23:42:21.773Z,14.05
2023-05-03T23:45:23.668Z,14.14
2023-05-03T23:48:25.935Z,14.00
2023-05-03T23:51:27.722Z,14.14
2023-05-03T23:54:31.513Z,14.11
2023-05-03T23:57:33.372Z,14.11
